Portada
METAR-TAF:

METAR-TAF

Aeropuertos :

Aeropuerto de Copenhague-Roskilde

Roskilde, Dinamarca

latitud: 55-35N, longitud: 012-08E, altitud: 44 m

Observación

El informe se hizo hace 18 minutos, a las 02:20 UTC
Viento 9 kt del sur-sureste
Temperatura 15°C
Humedad 82%
Presión 998 hPa
Visibilidad 10 km o más

METAR: EKRK 240220Z AUTO 16009KT 9999 FEW072/// SCT240/// 15/12 Q0998

Hora: 04:38 (02:38 UTC)

Pronóstico

El informe se hizo hace 3 horas y 16 minutos, a las 23:22 UTC
Pronóstico válido del 24 a las 00 UTC al 24 a las 09 UTC
Viento 10 kt del sur-sureste
Visibilidad: 7000 m
Escasas nubes a una altura de 3000 ft
Evolucionando progresivamente
del 24 a las 06 UTC al 24 a las 09 UTC
Viento 15 kt del oeste-suroeste
Temporalmente
del 24 a las 08 UTC al 24 a las 09 UTC
Escasas nubes a una altura de 3000 ft, Cumulonimbus.

TAF: EKRK 232322Z 2400/2409 16010KT 7000 FEW030 BECMG 2406/2409 24015KT TEMPO 2408/2409 FEW030CB

Observaciones y pronósticos meteorológicos de más de 4000 aeropuertos (mensajes METAR y TAF).

Los puntos amarillos y rojos representan las estaciones disponibles.

Ponga el ratón en el punto deseado para ver el nombre de la estación.

Haga clic para ver las observaciones y los pronósticos meteorológicos.

Para cambiar el mapa : haga clic en los botones verdes con una cruz de color negro para hacer un zoom, en el botón verde con un guión para alejar o en las flechas verdes para mapas adyacentes.


METAR-TAF: